createdAt,value
2022-10-25T00:01:29.775Z,83.38
2022-10-25T00:03:56.968Z,83.76
2022-10-25T00:06:24.102Z,83.74
2022-10-25T00:08:51.204Z,83.81
2022-10-25T00:11:24.509Z,83.51
2022-10-25T00:13:53.157Z,83.52
2022-10-25T00:16:23.615Z,83.74
2022-10-25T00:18:51.835Z,83.62
2022-10-25T00:21:18.928Z,83.72
2022-10-25T00:23:46.224Z,83.81
2022-10-25T00:26:13.440Z,83.95
2022-10-25T00:28:40.960Z,83.91
2022-10-25T00:31:10.550Z,83.70
2022-10-25T00:33:38.558Z,83.93
2022-10-25T00:36:09.217Z,83.99
2022-10-25T00:38:36.345Z,83.66
2022-10-25T00:41:04.119Z,83.70
2022-10-25T00:43:41.585Z,83.90
2022-10-25T00:46:20.886Z,84.10
2022-10-25T00:48:54.667Z,84.13
2022-10-25T00:51:26.624Z,83.99
2022-10-25T00:53:53.410Z,84.06
2022-10-25T00:56:25.168Z,84.16
2022-10-25T00:58:56.792Z,83.97
2022-10-25T01:01:24.912Z,84.17
2022-10-25T01:03:54.455Z,84.31
2022-10-25T01:06:41.884Z,84.23
2022-10-25T01:10:11.200Z,84.28
2022-10-25T01:13:14.195Z,84.40
2022-10-25T01:16:29.059Z,84.12
2022-10-25T01:19:14.511Z,84.52
2022-10-25T01:21:47.869Z,84.19
2022-10-25T01:24:32.456Z,84.23
2022-10-25T01:27:44.974Z,84.50
2022-10-25T01:30:23.537Z,84.37
2022-10-25T01:33:30.462Z,84.51
2022-10-25T01:36:22.795Z,84.39
2022-10-25T01:39:33.104Z,84.35
2022-10-25T01:42:33.173Z,84.53
2022-10-25T01:45:21.644Z,84.66
2022-10-25T01:47:56.599Z,84.62
2022-10-25T01:50:29.999Z,84.51
2022-10-25T01:52:56.942Z,84.74
2022-10-25T01:55:34.978Z,84.49
2022-10-25T01:58:29.985Z,84.68
2022-10-25T02:01:08.194Z,84.73
2022-10-25T02:03:49.343Z,84.71
2022-10-25T02:06:56.324Z,84.92
2022-10-25T02:10:19.071Z,84.80
2022-10-25T02:12:53.502Z,84.62
2022-10-25T02:15:29.407Z,84.86
2022-10-25T02:18:00.407Z,84.43
2022-10-25T02:20:31.558Z,84.47
2022-10-25T02:23:01.171Z,84.58
2022-10-25T02:25:29.989Z,84.40
2022-10-25T02:27:58.753Z,84.69
2022-10-25T02:30:25.929Z,84.53
2022-10-25T02:32:52.828Z,84.53
2022-10-25T02:35:20.727Z,84.47
2022-10-25T02:37:47.759Z,84.15
2022-10-25T02:40:14.945Z,84.13
2022-10-25T02:42:41.590Z,84.28
2022-10-25T02:45:08.793Z,84.40
2022-10-25T02:47:35.488Z,84.55
2022-10-25T02:50:02.278Z,84.29
2022-10-25T02:52:29.132Z,84.28
2022-10-25T02:54:55.813Z,84.21
2022-10-25T02:57:22.641Z,84.61
2022-10-25T02:59:49.548Z,84.69
2022-10-25T03:02:16.485Z,84.34
2022-10-25T03:04:43.324Z,84.75
2022-10-25T03:07:10.084Z,84.72
2022-10-25T03:09:36.855Z,84.72
2022-10-25T03:12:03.689Z,84.55
2022-10-25T03:14:30.460Z,84.44
2022-10-25T03:16:57.249Z,84.63
2022-10-25T03:19:24.001Z,84.48
2022-10-25T03:21:50.917Z,84.46
2022-10-25T03:24:17.670Z,84.82
2022-10-25T03:26:44.311Z,84.77
2022-10-25T03:29:11.088Z,84.64
2022-10-25T03:31:37.895Z,84.78
2022-10-25T03:34:04.548Z,84.84
2022-10-25T03:36:31.381Z,84.74
2022-10-25T03:38:58.060Z,84.70
2022-10-25T03:41:24.962Z,84.79
2022-10-25T03:43:51.842Z,84.61
2022-10-25T03:46:18.628Z,84.59
2022-10-25T03:48:45.356Z,84.88
2022-10-25T03:51:12.324Z,84.68
2022-10-25T03:53:38.934Z,84.53
2022-10-25T03:56:06.139Z,84.84
2022-10-25T03:58:32.838Z,84.85
2022-10-25T04:01:00.148Z,84.71
2022-10-25T04:03:27.297Z,84.81
2022-10-25T04:05:54.084Z,84.59
2022-10-25T04:08:20.719Z,84.87
2022-10-25T04:10:47.469Z,84.71
2022-10-25T04:13:14.417Z,84.71
2022-10-25T04:15:41.079Z,84.88
2022-10-25T04:18:07.923Z,84.65
2022-10-25T04:20:34.803Z,84.85
2022-10-25T04:23:01.559Z,84.98
2022-10-25T04:25:29.124Z,85.04
2022-10-25T04:27:56.069Z,84.87
2022-10-25T04:30:22.756Z,84.92
2022-10-25T04:32:50.039Z,85.06
2022-10-25T04:35:17.675Z,85.07
2022-10-25T04:37:44.587Z,84.96
2022-10-25T04:40:11.905Z,84.96
2022-10-25T04:42:38.654Z,85.20
2022-10-25T04:45:05.655Z,85.01
2022-10-25T04:47:33.327Z,85.37
2022-10-25T04:50:00.469Z,85.26
2022-10-25T04:52:29.825Z,85.22
2022-10-25T04:54:56.901Z,85.25
2022-10-25T04:57:25.065Z,85.15
2022-10-25T04:59:52.693Z,85.32
2022-10-25T05:02:19.769Z,85.65
2022-10-25T05:04:46.478Z,85.35
2022-10-25T05:07:13.218Z,85.50
2022-10-25T05:09:41.711Z,85.46
2022-10-25T05:12:11.933Z,85.44
2022-10-25T05:14:38.554Z,85.76
2022-10-25T05:17:05.475Z,85.75
2022-10-25T05:19:32.181Z,85.60
2022-10-25T05:21:58.893Z,85.81
2022-10-25T05:24:25.805Z,85.55
2022-10-25T05:26:52.562Z,85.25
2022-10-25T05:29:19.306Z,85.24
2022-10-25T05:31:46.138Z,85.27
2022-10-25T05:34:12.879Z,85.30
2022-10-25T05:36:39.548Z,85.26
2022-10-25T05:39:06.639Z,85.00
2022-10-25T05:41:36.251Z,85.20
2022-10-25T05:44:04.911Z,85.14
2022-10-25T05:46:35.615Z,85.14
2022-10-25T05:49:02.504Z,84.89
2022-10-25T05:51:35.820Z,85.14
2022-10-25T05:54:15.003Z,84.89
2022-10-25T05:56:42.782Z,84.95
2022-10-25T05:59:11.989Z,85.06
2022-10-25T06:01:46.777Z,84.78
2022-10-25T06:04:14.539Z,84.97
2022-10-25T06:06:42.381Z,84.86
2022-10-25T06:09:10.189Z,84.90
2022-10-25T06:11:38.314Z,84.61
2022-10-25T06:14:05.860Z,84.48
2022-10-25T06:16:33.099Z,84.49
2022-10-25T06:18:59.943Z,84.82
2022-10-25T06:21:28.755Z,84.36
2022-10-25T06:23:56.890Z,84.79
2022-10-25T06:26:26.693Z,84.64
2022-10-25T06:28:57.238Z,84.70
2022-10-25T06:31:24.121Z,84.57
2022-10-25T06:33:51.281Z,84.78
2022-10-25T06:36:21.065Z,84.57
2022-10-25T06:38:49.520Z,84.79
2022-10-25T06:41:18.970Z,84.49
2022-10-25T06:43:46.023Z,84.65
2022-10-25T06:46:20.360Z,84.61
2022-10-25T06:48:47.413Z,84.82
2022-10-25T06:51:14.083Z,85.17
2022-10-25T06:53:40.796Z,84.80
2022-10-25T06:56:14.191Z,85.11
2022-10-25T06:58:41.419Z,85.17
2022-10-25T07:01:11.877Z,85.09
2022-10-25T07:08:22.718Z,85.24
2022-10-25T07:11:54.935Z,85.28
2022-10-25T07:19:12.897Z,85.38
2022-10-25T07:22:39.314Z,85.44
2022-10-25T07:25:06.263Z,85.46
2022-10-25T07:32:18.472Z,85.77
2022-10-25T07:35:58.655Z,85.72
2022-10-25T07:43:22.950Z,85.93
2022-10-25T07:46:49.367Z,85.89
2022-10-25T07:50:16.092Z,85.99
2022-10-25T07:53:42.568Z,86.16
2022-10-25T08:00:09.765Z,86.41
2022-10-25T08:03:36.288Z,86.37
2022-10-25T08:07:02.745Z,86.29
2022-10-25T08:13:45.621Z,86.07
2022-10-25T08:16:12.292Z,86.18
2022-10-25T08:18:38.920Z,86.44
2022-10-25T08:21:05.998Z,86.32
2022-10-25T08:23:33.258Z,85.99
2022-10-25T08:26:01.302Z,86.36
2022-10-25T08:28:28.468Z,86.18
2022-10-25T08:30:55.825Z,86.26
2022-10-25T08:33:23.179Z,86.44
2022-10-25T08:35:50.003Z,86.05
2022-10-25T08:38:16.855Z,86.17
2022-10-25T08:40:58.845Z,85.98
2022-10-25T08:43:50.341Z,86.21
2022-10-25T08:46:23.903Z,86.06
2022-10-25T08:48:59.533Z,85.75
2022-10-25T08:51:34.047Z,85.87
2022-10-25T08:54:40.641Z,86.02
2022-10-25T09:01:48.840Z,85.92
2022-10-25T09:04:15.927Z,85.50
2022-10-25T09:07:13.201Z,85.78
2022-10-25T09:09:39.771Z,85.40
2022-10-25T09:12:06.473Z,85.33
2022-10-25T09:14:59.804Z,85.49
2022-10-25T09:17:49.823Z,85.35
2022-10-25T09:20:22.728Z,84.93
2022-10-25T09:22:57.908Z,84.81
2022-10-25T09:25:41.630Z,85.13
2022-10-25T09:28:24.445Z,85.01
2022-10-25T09:30:57.066Z,84.92
2022-10-25T09:33:30.434Z,84.54
2022-10-25T09:35:58.954Z,84.45
2022-10-25T09:38:44.205Z,84.31
2022-10-25T09:41:26.609Z,84.33
2022-10-25T09:44:00.794Z,84.20
2022-10-25T09:46:52.936Z,83.99
2022-10-25T09:49:25.564Z,83.54
2022-10-25T09:52:04.390Z,83.31
2022-10-25T09:54:53.679Z,82.74
2022-10-25T09:58:21.023Z,82.67
2022-10-25T10:01:47.532Z,82.20
2022-10-25T10:04:36.675Z,82.32
2022-10-25T10:11:27.086Z,81.82
2022-10-25T10:14:10.766Z,81.21
2022-10-25T10:16:50.871Z,81.27
2022-10-25T10:19:21.054Z,81.37
2022-10-25T10:22:12.489Z,81.16
2022-10-25T10:24:42.292Z,80.73
2022-10-25T10:27:11.936Z,80.73
2022-10-25T10:29:56.097Z,80.64
2022-10-25T10:32:35.963Z,80.49
2022-10-25T10:35:06.693Z,80.48
2022-10-25T10:37:34.432Z,80.52
2022-10-25T10:40:23.175Z,80.33
2022-10-25T10:42:50.248Z,80.15
2022-10-25T10:45:20.965Z,79.91
2022-10-25T10:47:58.270Z,79.70
2022-10-25T10:50:28.866Z,79.79
2022-10-25T10:53:06.776Z,79.44
2022-10-25T10:55:53.438Z,79.28
2022-10-25T10:58:25.265Z,78.69
2022-10-25T11:00:59.744Z,78.48
2022-10-25T11:03:53.503Z,78.10
2022-10-25T11:07:29.623Z,77.77
2022-10-25T11:11:01.063Z,77.15
2022-10-25T11:18:01.562Z,76.68
2022-10-25T11:20:53.995Z,76.23
2022-10-25T11:23:53.439Z,75.88
2022-10-25T11:26:29.764Z,75.65
2022-10-25T11:29:18.406Z,75.43
2022-10-25T11:32:02.743Z,75.33
2022-10-25T11:34:47.757Z,74.95
2022-10-25T11:37:34.335Z,75.14
2022-10-25T11:40:16.167Z,74.91
2022-10-25T11:43:15.110Z,74.80
2022-10-25T11:45:44.726Z,74.86
2022-10-25T11:48:48.468Z,74.69
2022-10-25T11:51:26.309Z,74.88
2022-10-25T11:54:13.992Z,74.88
2022-10-25T11:56:52.577Z,74.71
2022-10-25T11:59:22.763Z,74.90
2022-10-25T12:02:18.260Z,75.09
2022-10-25T12:05:02.047Z,74.80
2022-10-25T12:07:42.725Z,75.09
2022-10-25T12:10:24.824Z,75.15
2022-10-25T12:13:02.525Z,74.93
2022-10-25T12:15:43.443Z,75.12
2022-10-25T12:18:56.747Z,74.80
2022-10-25T12:21:31.158Z,74.79
2022-10-25T12:23:58.546Z,74.91
2022-10-25T12:26:33.394Z,74.67
2022-10-25T12:29:03.752Z,74.93
2022-10-25T12:31:46.166Z,74.67
2022-10-25T12:34:19.878Z,74.50
2022-10-25T12:37:08.366Z,74.79
2022-10-25T12:39:43.520Z,74.60
2022-10-25T12:42:21.680Z,74.43
2022-10-25T12:45:13.362Z,74.44
2022-10-25T12:47:54.979Z,74.33
2022-10-25T12:50:37.073Z,74.42
2022-10-25T12:53:22.407Z,74.25
2022-10-25T12:56:26.571Z,74.45
2022-10-25T12:59:04.760Z,74.53
2022-10-25T13:02:15.638Z,74.59
2022-10-25T13:05:20.918Z,74.72
2022-10-25T13:07:51.237Z,74.76
2022-10-25T13:13:16.544Z,74.80
2022-10-25T13:15:59.165Z,74.75
2022-10-25T13:18:47.733Z,74.40
2022-10-25T13:21:55.038Z,74.09
2022-10-25T13:24:47.629Z,73.63
2022-10-25T13:27:20.295Z,73.41
2022-10-25T13:30:04.988Z,73.04
2022-10-25T13:32:36.796Z,72.30
2022-10-25T13:35:26.086Z,71.90
2022-10-25T13:38:09.766Z,71.42
2022-10-25T13:40:38.829Z,71.07
2022-10-25T13:43:19.450Z,70.58
2022-10-25T13:45:53.749Z,70.14
2022-10-25T13:48:35.610Z,69.85
2022-10-25T13:51:14.584Z,69.54
2022-10-25T13:53:45.748Z,69.31
2022-10-25T13:56:33.603Z,69.13
2022-10-25T13:59:14.525Z,68.86
2022-10-25T14:01:47.476Z,68.55
2022-10-25T14:04:44.923Z,68.51
2022-10-25T14:07:44.520Z,68.23
2022-10-25T14:10:20.636Z,68.32
2022-10-25T14:12:49.943Z,68.39
2022-10-25T14:15:35.979Z,68.20
2022-10-25T14:18:07.676Z,68.27
2022-10-25T14:20:35.043Z,68.10
2022-10-25T14:23:04.065Z,68.28
2022-10-25T14:25:42.857Z,68.33
2022-10-25T14:28:21.511Z,67.92
2022-10-25T14:30:52.458Z,68.04
2022-10-25T14:33:21.980Z,67.89
2022-10-25T14:35:51.002Z,67.98
2022-10-25T14:38:26.838Z,68.20
2022-10-25T14:41:00.509Z,68.34
2022-10-25T14:43:33.763Z,68.20
2022-10-25T14:46:05.987Z,68.62
2022-10-25T14:48:33.637Z,68.86
2022-10-25T14:51:05.673Z,69.17
2022-10-25T14:53:33.438Z,69.19
2022-10-25T14:56:02.755Z,69.13
2022-10-25T14:58:41.285Z,69.48
2022-10-25T15:01:11.477Z,70.16
2022-10-25T15:03:46.578Z,69.94
2022-10-25T15:06:15.130Z,70.39
2022-10-25T15:08:49.203Z,70.81
2022-10-25T15:11:19.957Z,71.52
2022-10-25T15:13:53.706Z,71.64
2022-10-25T15:16:45.227Z,72.02
2022-10-25T15:19:15.408Z,72.66
2022-10-25T15:21:50.796Z,73.03
2022-10-25T15:24:27.440Z,73.30
2022-10-25T15:27:01.364Z,73.78
2022-10-25T15:29:30.877Z,73.76
2022-10-25T15:31:57.543Z,74.16
2022-10-25T15:34:24.513Z,74.50
2022-10-25T15:36:51.122Z,74.72
2022-10-25T15:39:29.209Z,74.81
2022-10-25T15:41:56.206Z,74.97
2022-10-25T15:44:22.822Z,75.14
2022-10-25T15:46:49.975Z,75.05
2022-10-25T15:49:16.814Z,75.14
2022-10-25T15:51:45.037Z,75.69
2022-10-25T15:54:22.882Z,75.83
2022-10-25T15:56:50.510Z,75.64
2022-10-25T15:59:17.699Z,75.75
2022-10-25T16:01:47.323Z,76.02
2022-10-25T16:04:16.036Z,76.25
2022-10-25T16:06:43.465Z,76.06
2022-10-25T16:09:10.780Z,76.22
2022-10-25T16:11:42.646Z,76.33
2022-10-25T16:14:21.240Z,76.46
2022-10-25T16:16:48.097Z,76.60
2022-10-25T16:19:16.696Z,76.91
2022-10-25T16:21:43.946Z,76.78
2022-10-25T16:24:11.783Z,77.12
2022-10-25T16:26:38.528Z,77.24
2022-10-25T16:29:05.818Z,77.52
2022-10-25T16:31:32.779Z,77.28
2022-10-25T16:33:59.464Z,77.76
2022-10-25T16:36:26.546Z,77.62
2022-10-25T16:38:53.435Z,77.79
2022-10-25T16:41:31.307Z,78.11
2022-10-25T16:43:58.701Z,78.25
2022-10-25T16:46:26.534Z,78.48
2022-10-25T16:48:55.856Z,78.83
2022-10-25T16:51:27.115Z,78.52
2022-10-25T16:53:53.773Z,79.22
2022-10-25T16:56:21.144Z,79.58
2022-10-25T16:58:47.948Z,79.59
2022-10-25T17:01:20.562Z,79.90
2022-10-25T17:03:48.079Z,80.16
2022-10-25T17:06:39.808Z,80.38
2022-10-25T17:09:01.595Z,80.89
2022-10-25T17:11:28.462Z,81.15
2022-10-25T17:13:55.298Z,81.41
2022-10-25T17:16:22.075Z,81.70
2022-10-25T17:18:48.908Z,82.27
2022-10-25T17:21:18.178Z,82.63
2022-10-25T17:23:44.899Z,82.65
2022-10-25T17:26:11.838Z,83.11
2022-10-25T17:28:43.137Z,83.24
2022-10-25T17:31:13.234Z,83.33
2022-10-25T17:33:40.698Z,83.69
2022-10-25T17:36:13.345Z,84.23
2022-10-25T17:38:40.207Z,84.15
2022-10-25T17:41:07.646Z,84.69
2022-10-25T17:43:35.924Z,84.78
2022-10-25T17:46:07.891Z,85.13
2022-10-25T17:48:35.030Z,85.36
2022-10-25T17:51:03.116Z,85.36
2022-10-25T17:53:30.005Z,85.77
2022-10-25T17:55:56.790Z,85.87
2022-10-25T17:58:23.580Z,86.21
2022-10-25T18:00:50.557Z,86.47
2022-10-25T18:03:17.406Z,86.41
2022-10-25T18:05:44.100Z,86.43
2022-10-25T18:08:11.417Z,86.91
2022-10-25T18:10:38.118Z,86.84
2022-10-25T18:13:04.826Z,87.27
2022-10-25T18:15:33.475Z,87.42
2022-10-25T18:18:00.258Z,87.42
2022-10-25T18:20:27.135Z,87.34
2022-10-25T18:22:55.678Z,87.45
2022-10-25T18:25:22.390Z,87.62
2022-10-25T18:27:49.424Z,87.54
2022-10-25T18:30:16.527Z,87.58
2022-10-25T18:32:43.446Z,88.05
2022-10-25T18:35:10.465Z,87.76
2022-10-25T18:37:37.275Z,88.13
2022-10-25T18:40:04.302Z,88.09
2022-10-25T18:42:31.297Z,88.30
2022-10-25T18:44:58.341Z,88.34
2022-10-25T18:47:25.157Z,88.30
2022-10-25T18:49:51.843Z,88.78
2022-10-25T18:52:18.629Z,88.93
2022-10-25T18:54:45.380Z,88.73
2022-10-25T18:57:13.597Z,88.63
2022-10-25T18:59:40.539Z,89.24
2022-10-25T19:02:08.053Z,89.23
2022-10-25T19:04:35.090Z,89.05
2022-10-25T19:07:01.976Z,89.65
2022-10-25T19:09:28.842Z,89.38
2022-10-25T19:11:55.618Z,89.75
2022-10-25T19:14:22.515Z,89.93
2022-10-25T19:16:49.818Z,89.87
2022-10-25T19:19:16.747Z,90.16
2022-10-25T19:21:43.645Z,90.11
2022-10-25T19:24:14.176Z,90.11
2022-10-25T19:26:42.009Z,90.45
2022-10-25T19:29:09.656Z,90.14
2022-10-25T19:31:36.483Z,90.61
2022-10-25T19:34:03.476Z,90.64
2022-10-25T19:36:32.949Z,90.46
2022-10-25T19:39:00.286Z,90.84
2022-10-25T19:41:28.212Z,90.79
2022-10-25T19:43:56.976Z,90.85
2022-10-25T19:46:24.064Z,91.29
2022-10-25T19:48:50.802Z,91.05
2022-10-25T19:51:19.606Z,91.28
2022-10-25T19:53:46.944Z,91.42
2022-10-25T19:56:16.857Z,91.52
2022-10-25T19:58:44.098Z,91.51
2022-10-25T20:01:15.805Z,91.66
2022-10-25T20:03:44.044Z,91.91
2022-10-25T20:06:21.609Z,91.67
2022-10-25T20:08:53.517Z,92.00
2022-10-25T20:11:21.432Z,92.02
2022-10-25T20:13:48.165Z,91.97
2022-10-25T20:16:15.392Z,92.21
2022-10-25T20:18:42.923Z,92.06
2022-10-25T20:21:13.447Z,92.31
2022-10-25T20:23:43.305Z,92.40
2022-10-25T20:26:21.795Z,92.46
2022-10-25T20:28:49.470Z,92.45
2022-10-25T20:31:16.706Z,92.33
2022-10-25T20:33:43.853Z,92.38
2022-10-25T20:36:13.142Z,92.58
2022-10-25T20:38:40.668Z,92.72
2022-10-25T20:41:12.431Z,92.95
2022-10-25T20:43:41.938Z,93.01
2022-10-25T20:46:09.096Z,92.82
2022-10-25T20:48:36.435Z,93.17
2022-10-25T20:51:06.792Z,93.00
2022-10-25T20:53:35.335Z,92.94
2022-10-25T20:56:02.605Z,93.13
2022-10-25T20:58:29.624Z,93.34
2022-10-25T21:00:57.597Z,93.43
2022-10-25T21:03:26.039Z,93.13
2022-10-25T21:05:58.079Z,93.59
2022-10-25T21:08:25.843Z,93.52
2022-10-25T21:10:59.490Z,93.83
2022-10-25T21:13:27.739Z,93.78
2022-10-25T21:15:54.403Z,93.83
2022-10-25T21:18:21.903Z,93.77
2022-10-25T21:20:49.047Z,93.87
2022-10-25T21:23:15.674Z,93.98
2022-10-25T21:25:42.731Z,93.98
2022-10-25T21:28:09.519Z,94.09
2022-10-25T21:30:36.177Z,93.84
2022-10-25T21:33:04.498Z,93.91
2022-10-25T21:35:32.562Z,94.16
2022-10-25T21:37:59.333Z,94.09
2022-10-25T21:40:26.476Z,94.18
2022-10-25T21:42:53.126Z,94.09
2022-10-25T21:45:19.772Z,94.39
2022-10-25T21:47:46.802Z,93.89
2022-10-25T21:50:15.227Z,94.15
2022-10-25T21:52:41.891Z,94.15
2022-10-25T21:55:09.288Z,94.26
2022-10-25T21:57:36.379Z,94.59
2022-10-25T22:00:06.205Z,94.57
2022-10-25T22:02:33.370Z,94.29
2022-10-25T22:05:00.132Z,94.43
2022-10-25T22:07:26.951Z,94.39
2022-10-25T22:09:53.724Z,94.81
2022-10-25T22:13:20.163Z,94.59
2022-10-25T22:16:49.740Z,94.62
2022-10-25T22:20:16.178Z,95.01
2022-10-25T22:23:42.851Z,94.94
2022-10-25T22:27:09.263Z,94.95
2022-10-25T22:30:36.040Z,94.91
2022-10-25T22:37:45.584Z,95.06
2022-10-25T22:40:15.002Z,95.14
2022-10-25T22:42:41.619Z,95.58
2022-10-25T22:45:08.819Z,95.34
2022-10-25T22:47:35.455Z,95.76
2022-10-25T22:50:02.112Z,95.48
2022-10-25T22:52:29.566Z,95.51
2022-10-25T22:54:56.223Z,95.73
2022-10-25T22:57:22.897Z,95.72
2022-10-25T22:59:49.962Z,95.52
2022-10-25T23:02:16.607Z,95.73
2022-10-25T23:04:43.256Z,95.82
2022-10-25T23:07:10.216Z,95.99
2022-10-25T23:09:36.890Z,95.79
2022-10-25T23:12:03.732Z,95.78
2022-10-25T23:14:30.714Z,96.06
2022-10-25T23:16:57.336Z,95.80
2022-10-25T23:19:24.024Z,96.36
2022-10-25T23:21:50.996Z,96.10
2022-10-25T23:24:17.680Z,96.20
2022-10-25T23:26:44.392Z,96.09
2022-10-25T23:29:12.290Z,95.89
2022-10-25T23:31:39.679Z,96.40
2022-10-25T23:34:06.434Z,96.32
2022-10-25T23:36:39.346Z,95.95
2022-10-25T23:39:07.462Z,96.05
2022-10-25T23:41:34.430Z,96.58
2022-10-25T23:44:01.362Z,96.06
2022-10-25T23:46:28.099Z,96.51
2022-10-25T23:48:54.882Z,96.27
2022-10-25T23:51:21.902Z,96.58
2022-10-25T23:53:48.863Z,96.61
2022-10-25T23:56:15.606Z,96.64
2022-10-25T23:58:42.760Z,96.58
